createdAt,value
2018-05-11T00:01:17.529Z,81.95
2018-05-11T00:03:45.108Z,81.95
2018-05-11T00:06:13.215Z,81.90
2018-05-11T00:08:41.160Z,81.84
2018-05-11T00:11:09.488Z,81.90
2018-05-11T00:13:37.797Z,81.93
2018-05-11T00:16:05.968Z,82.01
2018-05-11T00:18:33.589Z,81.93
2018-05-11T00:21:01.158Z,81.91
2018-05-11T00:23:29.007Z,81.83
2018-05-11T00:25:56.588Z,81.76
2018-05-11T00:28:24.391Z,81.71
2018-05-11T00:30:52.112Z,81.76
2018-05-11T00:33:19.700Z,81.89
2018-05-11T00:35:47.296Z,81.92
2018-05-11T00:38:14.993Z,81.96
2018-05-11T00:40:42.700Z,82.07
2018-05-11T00:43:10.277Z,82.34
2018-05-11T00:45:37.972Z,82.51
2018-05-11T00:48:05.880Z,82.52
2018-05-11T00:50:33.679Z,82.63
2018-05-11T00:53:01.299Z,82.63
2018-05-11T00:55:40.592Z,82.67
2018-05-11T00:58:08.389Z,82.76
2018-05-11T01:00:35.947Z,82.85
2018-05-11T01:03:03.539Z,82.98
2018-05-11T01:05:31.100Z,83.07
2018-05-11T01:07:58.702Z,83.14
2018-05-11T01:10:26.346Z,83.17
2018-05-11T01:12:54.136Z,83.16
2018-05-11T01:15:21.705Z,83.16
2018-05-11T01:17:49.285Z,83.18
2018-05-11T01:20:17.637Z,83.07
2018-05-11T01:22:45.210Z,82.91
2018-05-11T01:25:12.815Z,82.78
2018-05-11T01:27:40.457Z,82.73
2018-05-11T01:30:08.052Z,82.57
2018-05-11T01:32:35.611Z,82.57
2018-05-11T01:35:03.609Z,82.56
2018-05-11T01:37:31.177Z,82.59
2018-05-11T01:39:58.743Z,82.59
2018-05-11T01:42:26.344Z,82.71
2018-05-11T01:44:54.211Z,82.90
2018-05-11T01:47:21.767Z,83.05
2018-05-11T01:49:49.427Z,83.03
2018-05-11T01:52:17.167Z,82.92
2018-05-11T01:54:45.190Z,82.89
2018-05-11T01:57:12.834Z,82.91
2018-05-11T01:59:40.582Z,82.82
2018-05-11T02:02:08.161Z,82.74
2018-05-11T02:04:35.733Z,82.62
2018-05-11T02:07:03.342Z,82.62
2018-05-11T02:09:30.946Z,82.60
2018-05-11T02:11:58.525Z,82.57
2018-05-11T02:14:26.190Z,82.52
2018-05-11T02:16:53.825Z,82.47
2018-05-11T02:19:21.416Z,82.54
2018-05-11T02:21:49.365Z,82.57
2018-05-11T02:24:16.926Z,82.51
2018-05-11T02:26:44.568Z,82.45
2018-05-11T02:29:12.322Z,82.48
2018-05-11T02:31:39.991Z,82.50
2018-05-11T02:34:07.554Z,82.48
2018-05-11T02:36:35.547Z,82.45
2018-05-11T02:39:03.305Z,82.36
2018-05-11T02:41:31.019Z,82.24
2018-05-11T02:43:58.621Z,82.20
2018-05-11T02:46:26.457Z,82.15
2018-05-11T02:48:54.300Z,82.21
2018-05-11T02:51:21.897Z,82.33
2018-05-11T02:53:49.473Z,82.53
2018-05-11T02:56:17.201Z,82.62
2018-05-11T02:58:44.788Z,82.76
2018-05-11T03:01:12.778Z,82.94
2018-05-11T03:03:40.369Z,83.05
2018-05-11T03:06:07.979Z,82.98
2018-05-11T03:08:36.000Z,82.79
2018-05-11T03:11:03.575Z,82.69
2018-05-11T03:13:31.155Z,82.66
2018-05-11T03:15:58.750Z,82.49
2018-05-11T03:18:26.314Z,82.40
2018-05-11T03:20:54.307Z,82.51
2018-05-11T03:23:21.919Z,82.56
2018-05-11T03:25:49.561Z,82.68
2018-05-11T03:28:17.154Z,82.79
2018-05-11T03:30:44.879Z,82.84
2018-05-11T03:33:12.639Z,82.76
2018-05-11T03:35:40.280Z,82.79
2018-05-11T03:38:07.851Z,82.96
2018-05-11T03:40:35.444Z,83.18
2018-05-11T03:43:03.137Z,83.26
2018-05-11T03:45:30.730Z,83.16
2018-05-11T03:47:58.286Z,83.20
2018-05-11T03:50:25.970Z,83.12
2018-05-11T03:52:53.547Z,83.09
2018-05-11T03:55:21.128Z,83.12
2018-05-11T03:57:48.812Z,83.15
2018-05-11T04:00:16.636Z,83.22
2018-05-11T04:02:56.074Z,83.35
2018-05-11T04:08:48.895Z,83.39
2018-05-11T04:11:16.528Z,83.43
2018-05-11T04:13:44.133Z,83.61
2018-05-11T04:16:11.848Z,83.84
2018-05-11T04:18:39.434Z,84.08
2018-05-11T04:21:07.004Z,84.36
2018-05-11T04:23:35.000Z,84.62
2018-05-11T04:26:02.888Z,84.72
2018-05-11T04:28:30.445Z,84.88
2018-05-11T04:30:58.109Z,85.08
2018-05-11T04:33:25.732Z,85.18
2018-05-11T04:35:53.446Z,85.27
2018-05-11T04:38:21.005Z,85.60
2018-05-11T04:40:48.576Z,85.81
2018-05-11T04:43:16.196Z,86.04
2018-05-11T04:45:43.850Z,86.15
2018-05-11T04:48:11.864Z,86.27
2018-05-11T04:50:39.438Z,86.36
2018-05-11T04:53:07.040Z,86.45
2018-05-11T04:55:34.639Z,86.57
2018-05-11T04:58:02.213Z,86.81
2018-05-11T05:00:29.977Z,87.04
2018-05-11T05:02:57.554Z,87.12
2018-05-11T05:05:25.134Z,87.14
2018-05-11T05:07:52.745Z,87.12
2018-05-11T05:10:20.311Z,86.96
2018-05-11T05:12:48.269Z,87.03
2018-05-11T05:15:15.901Z,87.15
2018-05-11T05:17:43.500Z,87.14
2018-05-11T05:20:11.088Z,87.02
2018-05-11T05:22:38.695Z,86.80
2018-05-11T05:25:06.297Z,86.77
2018-05-11T05:27:34.150Z,86.76
2018-05-11T05:30:01.953Z,86.66
2018-05-11T05:32:29.539Z,86.63
2018-05-11T05:34:57.341Z,86.57
2018-05-11T05:37:25.049Z,86.43
2018-05-11T05:39:52.895Z,86.31
2018-05-11T05:42:20.477Z,86.46
2018-05-11T05:44:48.496Z,86.36
2018-05-11T05:47:16.198Z,86.44
2018-05-11T05:49:43.787Z,86.44
2018-05-11T05:52:11.463Z,86.63
2018-05-11T05:54:39.045Z,86.78
2018-05-11T05:57:06.637Z,86.54
2018-05-11T05:59:34.288Z,86.16
2018-05-11T06:02:01.861Z,86.05
2018-05-11T06:04:29.664Z,85.25
2018-05-11T06:06:57.295Z,84.98
2018-05-11T06:09:24.940Z,85.04
2018-05-11T06:11:52.619Z,84.99
2018-05-11T06:14:20.304Z,84.52
2018-05-11T06:16:47.990Z,83.92
2018-05-11T06:19:15.598Z,83.95
2018-05-11T06:21:43.378Z,83.63
2018-05-11T06:24:10.951Z,83.17
2018-05-11T06:26:43.858Z,81.52
2018-05-11T06:29:11.852Z,81.58
2018-05-11T06:31:39.458Z,81.80
2018-05-11T06:34:07.399Z,81.71
2018-05-11T06:36:34.964Z,81.72
2018-05-11T06:39:02.566Z,82.05
2018-05-11T06:41:31.305Z,82.08
2018-05-11T06:43:58.883Z,81.85
2018-05-11T06:46:26.487Z,81.67
2018-05-11T06:48:54.061Z,81.27
2018-05-11T06:51:21.672Z,80.76
2018-05-11T06:53:49.287Z,80.71
2018-05-11T06:56:16.865Z,80.53
2018-05-11T06:58:44.439Z,79.32
2018-05-11T07:01:12.044Z,79.34
2018-05-11T07:03:39.600Z,78.71
2018-05-11T07:06:07.851Z,78.26
2018-05-11T07:08:35.412Z,79.31
2018-05-11T07:11:02.992Z,78.63
2018-05-11T07:13:30.594Z,78.21
2018-05-11T07:15:58.164Z,77.91
2018-05-11T07:18:26.239Z,78.19
2018-05-11T07:20:53.758Z,77.70
2018-05-11T07:23:21.312Z,76.31
2018-05-11T07:25:49.434Z,76.44
2018-05-11T07:28:16.935Z,76.61
2018-05-11T07:30:44.483Z,75.03
2018-05-11T07:33:12.101Z,74.59
2018-05-11T07:35:39.726Z,74.89
2018-05-11T07:38:07.296Z,75.73
2018-05-11T07:40:34.942Z,75.70
2018-05-11T07:43:02.509Z,73.68
2018-05-11T07:45:30.104Z,73.82
2018-05-11T07:47:58.014Z,73.58
2018-05-11T07:50:26.906Z,73.53
2018-05-11T07:52:54.693Z,72.77
2018-05-11T07:55:22.410Z,72.78
2018-05-11T07:57:50.000Z,72.96
2018-05-11T08:00:17.580Z,71.66
2018-05-11T08:02:45.469Z,71.82
2018-05-11T08:05:13.058Z,71.10
2018-05-11T08:07:40.742Z,70.95
2018-05-11T08:10:08.990Z,70.09
2018-05-11T08:12:36.607Z,70.16
2018-05-11T08:15:04.167Z,69.00
2018-05-11T08:17:31.889Z,68.91
2018-05-11T08:19:59.474Z,69.61
2018-05-11T08:22:27.025Z,69.97
2018-05-11T08:24:54.615Z,70.28
2018-05-11T08:27:22.316Z,69.53
2018-05-11T08:29:50.015Z,69.43
2018-05-11T08:32:17.808Z,69.36
2018-05-11T08:34:45.375Z,68.74
2018-05-11T08:37:13.415Z,67.54
2018-05-11T08:39:41.431Z,67.22
2018-05-11T08:42:08.995Z,67.23
2018-05-11T08:44:36.583Z,66.73
2018-05-11T08:47:04.180Z,66.99
2018-05-11T08:49:31.806Z,68.30
2018-05-11T08:51:59.516Z,68.42
2018-05-11T08:54:27.059Z,67.64
2018-05-11T08:56:54.919Z,65.38
2018-05-11T08:59:22.637Z,66.50
2018-05-11T09:01:50.348Z,65.01
2018-05-11T09:04:17.962Z,64.74
2018-05-11T09:06:45.514Z,63.36
2018-05-11T09:09:13.076Z,64.43
2018-05-11T09:11:40.905Z,63.57
2018-05-11T09:14:08.485Z,63.74
2018-05-11T09:16:36.120Z,63.65
2018-05-11T09:19:03.670Z,62.83
2018-05-11T09:21:31.333Z,62.13
2018-05-11T09:23:58.914Z,62.63
2018-05-11T09:26:26.509Z,61.73
2018-05-11T09:28:54.340Z,60.82
2018-05-11T09:31:21.927Z,60.70
2018-05-11T09:33:49.502Z,60.13
2018-05-11T09:36:17.070Z,59.09
2018-05-11T09:38:44.815Z,59.58
2018-05-11T09:41:12.376Z,58.82
2018-05-11T09:43:40.013Z,56.44
2018-05-11T09:46:07.574Z,55.62
2018-05-11T09:48:35.231Z,54.24
2018-05-11T09:51:02.812Z,54.64
2018-05-11T09:53:30.377Z,53.99
2018-05-11T09:55:58.011Z,51.05
2018-05-11T09:58:25.563Z,51.68
2018-05-11T10:00:53.205Z,51.13
2018-05-11T10:03:20.990Z,51.44
2018-05-11T10:05:48.583Z,51.35
2018-05-11T10:08:16.224Z,50.34
2018-05-11T10:10:43.817Z,51.20
2018-05-11T10:13:11.378Z,51.50
2018-05-11T10:15:39.343Z,50.57
2018-05-11T10:20:51.305Z,47.73
2018-05-11T10:23:18.837Z,48.65
2018-05-11T10:25:46.706Z,48.64
2018-05-11T10:28:14.586Z,48.87
2018-05-11T10:30:42.209Z,48.53
2018-05-11T10:33:09.774Z,48.39
2018-05-11T10:35:37.419Z,44.25
2018-05-11T10:38:05.021Z,46.15
2018-05-11T10:40:32.707Z,45.73
2018-05-11T10:43:00.280Z,45.91
2018-05-11T10:45:27.834Z,45.38
2018-05-11T10:47:55.429Z,46.64
2018-05-11T10:50:23.074Z,49.11
2018-05-11T10:52:50.974Z,49.27
2018-05-11T10:55:18.536Z,46.58
2018-05-11T10:57:46.187Z,46.94
2018-05-11T11:00:13.780Z,46.98
2018-05-11T11:02:41.371Z,47.76
2018-05-11T11:05:09.178Z,45.04
2018-05-11T11:07:36.801Z,46.40
2018-05-11T11:10:04.352Z,47.02
2018-05-11T11:12:31.975Z,47.88
2018-05-11T11:14:59.565Z,47.87
2018-05-11T11:17:27.313Z,47.63
2018-05-11T11:19:55.221Z,47.92
2018-05-11T11:22:22.843Z,48.52
2018-05-11T11:24:50.429Z,49.21
2018-05-11T11:27:17.989Z,49.67
2018-05-11T11:29:45.929Z,49.17
2018-05-11T11:32:13.739Z,49.29
2018-05-11T11:34:41.361Z,49.16
2018-05-11T11:37:09.190Z,49.07
2018-05-11T11:39:36.813Z,49.08
2018-05-11T11:42:04.381Z,48.17
2018-05-11T11:44:32.301Z,48.59
2018-05-11T11:46:59.931Z,48.97
2018-05-11T11:49:27.507Z,48.85
2018-05-11T11:51:55.178Z,48.74
2018-05-11T11:54:22.801Z,48.25
2018-05-11T11:56:50.430Z,48.53
2018-05-11T11:59:18.268Z,48.76
2018-05-11T12:01:45.872Z,48.75
2018-05-11T12:04:13.536Z,48.36
2018-05-11T12:06:41.164Z,48.41
2018-05-11T12:09:08.733Z,45.97
2018-05-11T12:11:36.423Z,46.70
2018-05-11T12:14:04.048Z,44.60
2018-05-11T12:16:31.601Z,44.37
2018-05-11T12:18:59.217Z,44.10
2018-05-11T12:21:26.797Z,44.21
2018-05-11T12:23:54.381Z,43.60
2018-05-11T12:26:22.053Z,43.62
2018-05-11T12:28:49.552Z,43.93
2018-05-11T12:31:17.297Z,44.13
2018-05-11T12:33:44.853Z,43.80
2018-05-11T12:36:12.404Z,43.59
2018-05-11T12:38:39.994Z,42.38
2018-05-11T12:41:07.598Z,41.55
2018-05-11T12:43:35.428Z,41.11
2018-05-11T12:46:03.015Z,39.96
2018-05-11T12:48:31.047Z,40.10
2018-05-11T12:50:58.674Z,38.78
2018-05-11T12:53:26.269Z,38.98
2018-05-11T12:55:54.685Z,40.64
2018-05-11T12:58:22.226Z,39.54
2018-05-11T13:00:50.095Z,38.74
2018-05-11T13:03:17.705Z,39.22
2018-05-11T13:05:45.328Z,38.47
2018-05-11T13:08:12.930Z,37.46
2018-05-11T13:10:40.927Z,37.05
2018-05-11T13:13:08.725Z,37.87
2018-05-11T13:15:36.619Z,38.84
2018-05-11T13:18:04.236Z,38.11
2018-05-11T13:20:31.860Z,38.91
2018-05-11T13:22:59.403Z,38.83
2018-05-11T13:25:27.058Z,39.08
2018-05-11T13:27:54.643Z,39.16
2018-05-11T13:30:22.282Z,35.46
2018-05-11T13:32:49.885Z,36.76
2018-05-11T13:35:17.695Z,36.95
2018-05-11T13:37:45.279Z,37.56
2018-05-11T13:40:12.841Z,37.99
2018-05-11T13:42:46.998Z,38.49
2018-05-11T13:45:14.792Z,38.19
2018-05-11T13:47:42.354Z,39.19
2018-05-11T13:50:10.176Z,38.46
2018-05-11T13:52:37.991Z,39.59
2018-05-11T13:55:05.880Z,38.77
2018-05-11T13:57:33.528Z,37.53
2018-05-11T14:00:01.121Z,37.46
2018-05-11T14:02:28.766Z,36.74
2018-05-11T14:04:56.768Z,34.94
2018-05-11T14:07:24.324Z,34.53
2018-05-11T14:09:51.885Z,35.26
2018-05-11T14:12:19.478Z,34.72
2018-05-11T14:14:47.214Z,34.00
2018-05-11T14:17:14.882Z,34.72
2018-05-11T14:19:42.439Z,34.38
2018-05-11T14:22:10.070Z,35.14
2018-05-11T14:24:37.759Z,33.68
2018-05-11T14:27:05.448Z,32.82
2018-05-11T14:29:33.058Z,33.20
2018-05-11T14:32:00.719Z,34.46
2018-05-11T14:34:28.237Z,33.16
2018-05-11T14:36:55.866Z,33.55
2018-05-11T14:39:23.663Z,33.08
2018-05-11T14:41:51.390Z,32.42
2018-05-11T14:44:18.972Z,33.62
2018-05-11T14:46:46.576Z,33.75
2018-05-11T14:49:14.180Z,33.17
2018-05-11T14:51:41.843Z,32.97
2018-05-11T14:54:09.783Z,33.19
2018-05-11T14:56:37.556Z,33.52
2018-05-11T14:59:05.201Z,32.48
2018-05-11T15:01:32.765Z,32.97
2018-05-11T15:04:00.438Z,32.34
2018-05-11T15:06:28.346Z,32.51
2018-05-11T15:08:56.207Z,32.03
2018-05-11T15:11:23.768Z,32.28
2018-05-11T15:13:51.638Z,31.05
2018-05-11T15:16:19.280Z,31.47
2018-05-11T15:18:46.898Z,31.87
2018-05-11T15:21:14.759Z,32.16
2018-05-11T15:23:42.320Z,31.94
2018-05-11T15:26:09.887Z,32.01
2018-05-11T15:28:37.481Z,32.00
2018-05-11T15:31:05.142Z,32.50
2018-05-11T15:33:32.787Z,33.23
2018-05-11T15:36:00.431Z,34.32
2018-05-11T15:38:28.072Z,33.40
2018-05-11T15:40:55.731Z,33.48
2018-05-11T15:43:23.527Z,32.80
2018-05-11T15:45:51.591Z,33.13
2018-05-11T15:48:19.159Z,33.98
2018-05-11T15:50:46.748Z,34.17
2018-05-11T15:53:14.574Z,34.19
2018-05-11T15:55:42.131Z,33.00
2018-05-11T15:58:09.722Z,33.12
2018-05-11T16:00:37.284Z,33.68
2018-05-11T16:03:04.898Z,33.80
2018-05-11T16:05:32.559Z,34.25
2018-05-11T16:08:00.193Z,34.21
2018-05-11T16:10:28.011Z,33.54
2018-05-11T16:12:56.216Z,33.74
2018-05-11T16:15:23.737Z,34.56
2018-05-11T16:17:51.381Z,34.23
2018-05-11T16:20:18.990Z,34.43
2018-05-11T16:22:46.637Z,34.94
2018-05-11T16:25:14.499Z,34.90
2018-05-11T16:27:42.064Z,35.65
2018-05-11T16:30:09.626Z,35.35
2018-05-11T16:32:37.222Z,35.22
2018-05-11T16:35:04.805Z,35.31
2018-05-11T16:37:32.435Z,34.87
2018-05-11T16:40:00.007Z,34.74
2018-05-11T16:42:27.578Z,35.47
2018-05-11T16:44:55.162Z,35.73
2018-05-11T16:47:22.716Z,35.80
2018-05-11T16:49:50.956Z,36.64
2018-05-11T16:52:18.615Z,37.25
2018-05-11T16:54:46.240Z,37.68
2018-05-11T16:57:13.886Z,37.74
2018-05-11T16:59:41.447Z,37.81
2018-05-11T17:02:09.086Z,38.03
2018-05-11T17:04:36.786Z,37.91
2018-05-11T17:07:04.466Z,38.18
2018-05-11T17:09:32.266Z,38.32
2018-05-11T17:11:59.850Z,38.27
2018-05-11T17:14:27.419Z,38.54
2018-05-11T17:16:55.522Z,38.83
2018-05-11T17:19:23.090Z,39.81
2018-05-11T17:21:50.697Z,40.22
2018-05-11T17:24:18.268Z,40.50
2018-05-11T17:26:45.933Z,39.63
2018-05-11T17:29:13.543Z,39.02
2018-05-11T17:31:41.274Z,39.48
2018-05-11T17:34:09.071Z,38.91
2018-05-11T17:36:36.743Z,38.87
2018-05-11T17:39:04.401Z,38.78
2018-05-11T17:41:32.041Z,38.76
2018-05-11T17:43:59.915Z,38.82
2018-05-11T17:46:27.694Z,38.93
2018-05-11T17:48:55.242Z,39.19
2018-05-11T17:51:22.818Z,39.25
2018-05-11T17:53:50.432Z,39.70
2018-05-11T17:56:18.014Z,40.25
2018-05-11T17:58:45.639Z,40.58
2018-05-11T18:01:13.253Z,40.54
2018-05-11T18:03:40.879Z,41.55
2018-05-11T18:06:08.559Z,41.46
2018-05-11T18:08:36.276Z,41.83
2018-05-11T18:11:03.863Z,42.48
2018-05-11T18:13:31.635Z,42.53
2018-05-11T18:15:59.280Z,42.90
2018-05-11T18:18:26.911Z,43.31
2018-05-11T18:20:54.520Z,43.52
2018-05-11T18:23:22.118Z,44.06
2018-05-11T18:25:49.676Z,43.90
2018-05-11T18:28:17.279Z,43.87
2018-05-11T18:30:44.863Z,43.94
2018-05-11T18:33:12.791Z,44.12
2018-05-11T18:35:40.618Z,44.44
2018-05-11T18:38:08.416Z,44.40
2018-05-11T18:40:36.011Z,44.73
2018-05-11T18:43:04.068Z,45.04
2018-05-11T18:45:31.637Z,45.63
2018-05-11T18:47:59.204Z,46.05
2018-05-11T18:50:27.038Z,46.21
2018-05-11T18:52:54.704Z,46.79
2018-05-11T18:55:22.276Z,46.97
2018-05-11T18:57:49.856Z,47.33
2018-05-11T19:00:17.791Z,47.58
2018-05-11T19:02:45.361Z,47.70
2018-05-11T19:05:12.936Z,47.65
2018-05-11T19:07:40.535Z,47.67
2018-05-11T19:10:08.097Z,47.88
2018-05-11T19:12:35.717Z,48.20
2018-05-11T19:15:03.551Z,48.25
2018-05-11T19:17:31.179Z,48.29
2018-05-11T19:19:58.945Z,48.50
2018-05-11T19:22:27.430Z,48.52
2018-05-11T19:24:55.137Z,48.79
2018-05-11T19:27:22.702Z,49.00
2018-05-11T19:29:50.487Z,49.04
2018-05-11T19:32:18.080Z,49.23
2018-05-11T19:34:45.724Z,49.38
2018-05-11T19:37:13.785Z,49.55
2018-05-11T19:39:41.353Z,49.88
2018-05-11T19:42:08.913Z,50.20
2018-05-11T19:44:36.512Z,50.59
2018-05-11T19:47:04.321Z,50.85
2018-05-11T19:49:32.019Z,50.97
2018-05-11T19:51:59.587Z,51.17
2018-05-11T19:54:27.385Z,51.57
2018-05-11T19:56:54.995Z,52.09
2018-05-11T19:59:22.827Z,52.12
2018-05-11T20:01:50.721Z,52.22
2018-05-11T20:04:18.315Z,52.35
2018-05-11T20:06:46.029Z,52.53
2018-05-11T20:09:13.600Z,52.95
2018-05-11T20:11:41.439Z,53.23
2018-05-11T20:14:09.086Z,53.59
2018-05-11T20:16:36.900Z,53.81
2018-05-11T20:19:04.750Z,54.77
2018-05-11T20:21:33.148Z,55.16
2018-05-11T20:24:00.732Z,55.45
2018-05-11T20:26:28.360Z,55.52
2018-05-11T20:28:55.959Z,56.15
2018-05-11T20:31:23.746Z,56.24
2018-05-11T20:33:51.349Z,56.59
2018-05-11T20:36:18.993Z,56.59
2018-05-11T20:38:46.735Z,57.37
2018-05-11T20:41:14.287Z,57.74
2018-05-11T20:43:42.000Z,57.83
2018-05-11T20:46:10.291Z,57.80
2018-05-11T20:48:37.857Z,58.11
2018-05-11T20:51:05.504Z,58.01
2018-05-11T20:53:33.159Z,58.39
2018-05-11T20:56:00.716Z,58.43
2018-05-11T20:58:28.331Z,58.50
2018-05-11T21:00:55.886Z,58.77
2018-05-11T21:03:23.466Z,58.83
2018-05-11T21:05:51.325Z,59.76
2018-05-11T21:08:18.944Z,59.51
2018-05-11T21:10:46.667Z,59.55
2018-05-11T21:13:14.307Z,59.74
2018-05-11T21:15:42.213Z,60.03
2018-05-11T21:18:10.119Z,60.16
2018-05-11T21:20:37.831Z,60.30
2018-05-11T21:23:05.428Z,60.30
2018-05-11T21:25:33.005Z,60.61
2018-05-11T21:28:00.777Z,60.90
2018-05-11T21:30:28.344Z,61.28
2018-05-11T21:32:56.567Z,61.11
2018-05-11T21:35:24.220Z,61.50
2018-05-11T21:37:52.344Z,61.57
2018-05-11T21:40:20.020Z,61.81
2018-05-11T21:42:47.665Z,62.00
2018-05-11T21:45:15.253Z,62.03
2018-05-11T21:47:42.969Z,62.45
2018-05-11T21:50:10.790Z,62.71
2018-05-11T21:52:38.354Z,62.71
2018-05-11T21:55:05.943Z,63.13
2018-05-11T21:57:33.718Z,63.17
2018-05-11T22:00:01.427Z,63.50
2018-05-11T22:02:28.992Z,63.97
2018-05-11T22:04:56.570Z,64.09
2018-05-11T22:07:24.182Z,64.42
2018-05-11T22:09:51.804Z,64.16
2018-05-11T22:12:19.574Z,64.69
2018-05-11T22:14:47.236Z,64.52
2018-05-11T22:17:14.896Z,64.86
2018-05-11T22:19:42.583Z,64.90
2018-05-11T22:22:10.166Z,64.96
2018-05-11T22:24:37.731Z,65.16
2018-05-11T22:27:06.281Z,64.95
2018-05-11T22:29:34.115Z,64.94
2018-05-11T22:32:02.437Z,65.14
2018-05-11T22:34:30.000Z,65.26
2018-05-11T22:36:57.560Z,65.27
2018-05-11T22:39:25.204Z,65.20
2018-05-11T22:41:52.800Z,65.27
2018-05-11T22:44:20.435Z,65.11
2018-05-11T22:46:48.204Z,64.87
2018-05-11T22:49:16.034Z,64.94
2018-05-11T22:51:43.708Z,64.67
2018-05-11T22:54:11.636Z,64.66
2018-05-11T22:56:39.654Z,64.58
2018-05-11T22:59:07.223Z,64.55
2018-05-11T23:01:34.790Z,64.56
2018-05-11T23:04:02.608Z,64.59
2018-05-11T23:06:30.173Z,64.83
2018-05-11T23:08:57.778Z,64.51
2018-05-11T23:11:25.371Z,64.64
2018-05-11T23:13:52.933Z,64.58
2018-05-11T23:16:20.604Z,64.52
2018-05-11T23:18:48.210Z,64.45
2018-05-11T23:21:15.970Z,64.57
2018-05-11T23:23:43.545Z,64.53
2018-05-11T23:26:11.116Z,64.58
2018-05-11T23:28:38.726Z,64.65
2018-05-11T23:31:06.297Z,64.87
2018-05-11T23:33:33.923Z,64.75
2018-05-11T23:36:01.505Z,64.56
2018-05-11T23:38:29.333Z,64.80
2018-05-11T23:40:57.001Z,64.61
2018-05-11T23:43:24.643Z,64.83
2018-05-11T23:45:52.254Z,64.90
2018-05-11T23:48:20.053Z,64.79
2018-05-11T23:50:48.218Z,64.79
2018-05-11T23:53:16.056Z,64.78
2018-05-11T23:55:43.672Z,64.95
2018-05-11T23:58:11.321Z,65.34
